Time;durP1;ratioP1;P1;durP2;ratioP2;P2;SDS_P1;SDS_P2;PMS_P1;PMS_P2;Temp;Humidity;BMP_temperature;BMP_pressure;BME280_temperature;BME280_humidity;BME280_pressure;Samples;Min_cycle;Max_cycle;Signal;HPM_P1;HPM_P2
2024/04/05 00:01:41;;;;;;;;;;;;;;;;;;5064842;28;20382;-75
2024/04/05 00:04:08;;;;;;;;;;;;;;;;;;5071307;28;19981;-75
2024/04/05 00:06:35;;;;;;;;;;;;;;;;;;5074561;28;19943;-75
2024/04/05 00:09:03;;;;;;;;;;;;;;;;;;5068838;28;19935;-76
2024/04/05 00:11:29;;;;;;;;;;;;;;;;;;5068805;28;20354;-77
2024/04/05 00:13:57;;;;;;;;;;;;;;;;;;5078049;28;19932;-77
2024/04/05 00:16:23;;;;;;;;;;;;;;;;;;5070671;28;19935;-77
2024/04/05 00:18:50;;;;;;;;;;;;;;;;;;5066610;28;20018;-77
2024/04/05 00:21:16;;;;;;;;;;;;;;;;;;5077303;28;19979;-76
2024/04/05 00:23:43;;;;;;;;;;;;;;;;;;5068953;28;20702;-77
2024/04/05 00:26:09;;;;;;;;;;;;;;;;;;5075398;28;19950;-77
2024/04/05 00:28:37;;;;;;;;;;;;;;;;;;5063025;28;20081;-77
2024/04/05 00:31:03;;;;;;;;;;;;;;;;;;5070517;28;19951;-76
2024/04/05 00:33:31;;;;;;;;;;;;;;;;;;5074486;28;19929;-75
2024/04/05 00:35:57;;;;;;;;;;;;;;;;;;5074852;28;19935;-75
2024/04/05 00:38:24;;;;;;;;;;;;;;;;;;5071680;28;19989;-75
2024/04/05 00:40:50;;;;;;;;;;;;;;;;;;5067363;28;19989;-76
2024/04/05 00:43:17;;;;;;;;;;;;;;;;;;5070720;28;19936;-77
2024/04/05 00:45:43;;;;;;;;;;;;;;;;;;5073567;28;19971;-78
2024/04/05 00:48:10;;;;;;;;;;;;;;;;;;5075888;28;19928;-76
2024/04/05 00:50:37;;;;;;;;;;;;;;;;;;5082625;28;19982;-77
2024/04/05 00:53:03;;;;;;;;;;;;;;;;;;5074114;28;20408;-77
2024/04/05 00:55:31;;;;;;;;;;;;;;;;;;5072920;28;19967;-76
2024/04/05 00:57:57;;;;;;;;;;;;;;;;;;5078508;28;19928;-76
2024/04/05 01:00:24;;;;;;;;;;;;;;;;;;5072315;28;19928;-77
2024/04/05 01:02:50;;;;;;;;;;;;;;;;;;5081140;28;19928;-76
2024/04/05 01:05:19;;;;;;;;;;;;;;;;;;5078030;28;20505;-77
2024/04/05 01:07:45;;;;;;;;;;;;;;;;;;5078978;28;19939;-77
2024/04/05 01:10:12;;;;;;;;;;;;;;;;;;5084823;28;19928;-77
2024/04/05 01:12:38;;;;;;;;;;;;;;;;;;5082108;28;19971;-76
2024/04/05 01:15:05;;;;;;;;;;;;;;;;;;5077534;28;19928;-76
2024/04/05 01:17:31;;;;;;;;;;;;;;;;;;5074456;28;19928;-75
2024/04/05 01:19:58;;;;;;;;;;;;;;;;;;5071502;28;20383;-75
2024/04/05 01:22:24;;;;;;;;;;;;;;;;;;5072613;28;19928;-73
2024/04/05 01:24:51;;;;;;;;;;;;;;;;;;5071423;28;19928;-75
2024/04/05 01:27:18;;;;;;;;;;;;;;;;;;5068107;28;20430;-75
2024/04/05 01:29:45;;;;;;;;;;;;;;;;;;5072783;28;20421;-75
2024/04/05 01:32:11;;;;;;;;;;;;;;;;;;5069951;28;19997;-74
2024/04/05 01:34:38;;;;;;;;;;;;;;;;;;5070626;28;19935;-75
2024/04/05 01:37:04;;;;;;;;;;;;;;;;;;5073175;28;20373;-74
2024/04/05 01:39:31;;;;;;;;;;;;;;;;;;5073103;28;19982;-75
2024/04/05 01:41:57;;;;;;;;;;;;;;;;;;5072613;28;20352;-75
2024/04/05 01:44:24;;;;;;;;;;;;;;;;;;5075281;28;19928;-75
2024/04/05 01:46:50;;;;;;;;;;;;;;;;;;5080031;28;19935;-75
2024/04/05 01:49:17;;;;;;;;;;;;;;;;;;5076131;28;19978;-75
2024/04/05 01:51:43;;;;;;;;;;;;;;;;;;5075670;28;20451;-75
2024/04/05 01:54:10;;;;;;;;;;;;;;;;;;5072597;28;19999;-75
2024/04/05 01:56:36;;;;;;;;;;;;;;;;;;5072671;28;19928;-75
2024/04/05 01:59:03;;;;;;;;;;;;;;;;;;5069417;28;19929;-75
2024/04/05 02:01:30;;;;;;;;;;;;;;;;;;5064104;28;19929;-75
2024/04/05 02:03:57;;;;;;;;;;;;;;;;;;5077490;28;19994;-75
2024/04/05 02:06:23;;;;;;;;;;;;;;;;;;5073738;28;20310;-77
2024/04/05 02:08:50;;;;;;;;;;;;;;;;;;5076171;28;20009;-75
2024/04/05 02:11:16;;;;;;;;;;;;;;;;;;5076009;28;19943;-75
2024/04/05 02:13:43;;;;;;;;;;;;;;;;;;5069207;28;19968;-75
2024/04/05 02:16:09;;;;;;;;;;;;;;;;;;5074555;28;19929;-75
2024/04/05 02:18:36;;;;;;;;;;;;;;;;;;5068742;28;20419;-75
2024/04/05 02:21:02;;;;;;;;;;;;;;;;;;5069754;28;19929;-75
2024/04/05 02:23:29;;;;;;;;;;;;;;;;;;5067172;28;19935;-75
2024/04/05 02:25:55;;;;;;;;;;;;;;;;;;5073043;28;19986;-75
2024/04/05 02:28:22;;;;;;;;;;;;;;;;;;5077553;28;19939;-76
2024/04/05 02:30:48;;;;;;;;;;;;;;;;;;5074091;28;19981;-75
2024/04/05 02:33:15;;;;;;;;;;;;;;;;;;5067888;28;19929;-75
2024/04/05 02:35:42;;;;;;;;;;;;;;;;;;5068482;28;19943;-75
2024/04/05 02:38:09;;;;;;;;;;;;;;;;;;5077707;28;20326;-75
2024/04/05 02:40:35;;;;;;;;;;;;;;;;;;5075050;28;20688;-75
2024/04/05 02:43:02;;;;;;;;;;;;;;;;;;5069461;28;19951;-75
2024/04/05 02:45:28;;;;;;;;;;;;;;;;;;5078525;28;19974;-75
2024/04/05 02:47:55;;;;;;;;;;;;;;;;;;5069697;28;19935;-75
2024/04/05 02:50:21;;;;;;;;;;;;;;;;;;5073605;28;20346;-76
2024/04/05 02:52:48;;;;;;;;;;;;;;;;;;5068868;28;20681;-75
2024/04/05 02:55:14;;;;;;;;;;;;;;;;;;5071923;28;19928;-76
2024/04/05 02:57:41;;;;;;;;;;;;;;;;;;5074393;28;20190;-76
2024/04/05 03:00:07;;;;;;;;;;;;;;;;;;5070195;28;19928;-77
2024/04/05 03:02:34;;;;;;;;;;;;;;;;;;5068959;28;20009;-77
2024/04/05 03:05:00;;;;;;;;;;;;;;;;;;5074625;28;20432;-77
2024/04/05 03:07:27;;;;;;;;;;;;;;;;;;5076815;28;19932;-76
2024/04/05 03:09:54;;;;;;;;;;;;;;;;;;5071287;28;19928;-77
2024/04/05 03:12:21;;;;;;;;;;;;;;;;;;5074763;28;20484;-76
2024/04/05 03:14:47;;;;;;;;;;;;;;;;;;5082268;28;19928;-76
2024/04/05 03:17:14;;;;;;;;;;;;;;;;;;5072518;28;20011;-76
2024/04/05 03:19:40;;;;;;;;;;;;;;;;;;5070779;28;20374;-76
2024/04/05 03:22:08;;;;;;;;;;;;;;;;;;5075619;28;20862;-77
2024/04/05 03:24:34;;;;;;;;;;;;;;;;;;5080856;28;19932;-77
2024/04/05 03:27:01;;;;;;;;;;;;;;;;;;5071728;28;19928;-76
2024/04/05 03:29:27;;;;;;;;;;;;;;;;;;5068359;28;20474;-76
2024/04/05 03:31:54;;;;;;;;;;;;;;;;;;5072374;28;20307;-77
2024/04/05 03:34:21;;;;;;;;;;;;;;;;;;5076082;28;19932;-76
2024/04/05 03:36:48;;;;;;;;;;;;;;;;;;5064760;28;19970;-76
2024/04/05 03:39:15;;;;;;;;;;;;;;;;;;5062548;28;19936;-77
2024/04/05 03:41:42;;;;;;;;;;;;;;;;;;5064909;28;19928;-77
2024/04/05 03:44:08;;;;;;;;;;;;;;;;;;5077066;28;20080;-77
2024/04/05 03:46:37;;;;;;;;;;;;;;;;;;5067038;28;19928;-77
2024/04/05 03:49:03;;;;;;;;;;;;;;;;;;5069252;28;19935;-77
2024/04/05 03:51:30;;;;;;;;;;;;;;;;;;5059935;28;19976;-75
2024/04/05 03:53:57;;;;;;;;;;;;;;;;;;5067819;28;19933;-76
2024/04/05 03:56:24;;;;;;;;;;;;;;;;;;5069914;28;19928;-75
2024/04/05 03:58:51;;;;;;;;;;;;;;;;;;5068830;28;19955;-75
2024/04/05 04:01:18;;;;;;;;;;;;;;;;;;5075162;28;19932;-74
2024/04/05 04:03:44;;;;;;;;;;;;;;;;;;5074500;28;19936;-75
2024/04/05 04:06:11;;;;;;;;;;;;;;;;;;5071723;28;19928;-76
2024/04/05 04:08:37;;;;;;;;;;;;;;;;;;5069928;28;19928;-75
2024/04/05 04:11:04;;;;;;;;;;;;;;;;;;5065647;28;19947;-75
2024/04/05 04:13:31;;;;;;;;;;;;;;;;;;5071005;28;19929;-75
2024/04/05 04:15:58;;;;;;;;;;;;;;;;;;5067568;28;19972;-75
2024/04/05 04:18:24;;;;;;;;;;;;;;;;;;5066208;28;19936;-75
2024/04/05 04:20:51;;;;;;;;;;;;;;;;;;5076077;28;19982;-74
2024/04/05 04:23:17;;;;;;;;;;;;;;;;;;5075797;28;20299;-76
2024/04/05 04:25:44;;;;;;;;;;;;;;;;;;5071249;28;19928;-75
2024/04/05 04:28:11;;;;;;;;;;;;;;;;;;5067448;28;20311;-75
2024/04/05 04:30:38;;;;;;;;;;;;;;;;;;5072238;28;19935;-75
2024/04/05 04:33:04;;;;;;;;;;;;;;;;;;5069240;28;20001;-75
2024/04/05 04:35:31;;;;;;;;;;;;;;;;;;5070583;28;19935;-75
2024/04/05 04:37:57;;;;;;;;;;;;;;;;;;5069410;28;20379;-76
2024/04/05 04:40:24;;;;;;;;;;;;;;;;;;5073299;28;20461;-75
2024/04/05 04:42:50;;;;;;;;;;;;;;;;;;5079875;28;19963;-75
2024/04/05 04:45:17;;;;;;;;;;;;;;;;;;5070395;28;19997;-74
2024/04/05 04:47:43;;;;;;;;;;;;;;;;;;5067798;28;19928;-75
2024/04/05 04:50:10;;;;;;;;;;;;;;;;;;5065587;28;20379;-75
2024/04/05 04:52:37;;;;;;;;;;;;;;;;;;5066623;28;19932;-75
2024/04/05 04:55:04;;;;;;;;;;;;;;;;;;5070722;28;19928;-74
2024/04/05 04:57:32;;;;;;;;;;;;;;;;;;5066958;28;20383;-75
2024/04/05 04:59:59;;;;;;;;;;;;;;;;;;5065152;28;19968;-75
2024/04/05 05:02:25;;;;;;;;;;;;;;;;;;5076393;28;20049;-75
2024/04/05 05:04:52;;;;;;;;;;;;;;;;;;5070664;28;19935;-75
2024/04/05 05:07:18;;;;;;;;;;;;;;;;;;5068522;28;19929;-74
2024/04/05 05:09:46;;;;;;;;;;;;;;;;;;5065594;28;19929;-75
2024/04/05 05:12:12;;;;;;;;;;;;;;;;;;5073159;28;19951;-75
2024/04/05 05:14:39;;;;;;;;;;;;;;;;;;5077555;28;20277;-74
2024/04/05 05:17:05;;;;;;;;;;;;;;;;;;5067525;28;20391;-74
2024/04/05 05:19:33;;;;;;;;;;;;;;;;;;5064762;28;20357;-76
2024/04/05 05:21:59;;;;;;;;;;;;;;;;;;5064856;28;19958;-76
2024/04/05 05:24:26;;;;;;;;;;;;;;;;;;5066378;28;19928;-74
2024/04/05 05:26:52;;;;;;;;;;;;;;;;;;5068478;28;19971;-77
2024/04/05 05:29:20;;;;;;;;;;;;;;;;;;5065254;28;19932;-75
2024/04/05 05:31:46;;;;;;;;;;;;;;;;;;5064618;28;19929;-76
2024/04/05 05:34:13;;;;;;;;;;;;;;;;;;5070944;28;20043;-73
2024/04/05 05:36:39;;;;;;;;;;;;;;;;;;5065634;28;19974;-73
2024/04/05 05:39:06;;;;;;;;;;;;;;;;;;5076193;28;19928;-74
2024/04/05 05:41:32;;;;;;;;;;;;;;;;;;5071048;28;20406;-73
2024/04/05 05:43:59;;;;;;;;;;;;;;;;;;5073188;28;20031;-74
2024/04/05 05:46:25;;;;;;;;;;;;;;;;;;5065601;28;19932;-74
2024/04/05 05:48:52;;;;;;;;;;;;;;;;;;5066718;28;19936;-73
2024/04/05 05:51:18;;;;;;;;;;;;;;;;;;5070724;28;19975;-73
2024/04/05 05:53:45;;;;;;;;;;;;;;;;;;5071504;28;20284;-74
2024/04/05 05:56:11;;;;;;;;;;;;;;;;;;5068861;28;19976;-74
2024/04/05 05:58:39;;;;;;;;;;;;;;;;;;5076135;28;19928;-74
2024/04/05 06:01:05;;;;;;;;;;;;;;;;;;5067977;28;19998;-74
2024/04/05 06:03:33;;;;;;;;;;;;;;;;;;5069933;28;19929;-75
2024/04/05 06:06:02;;;;;;;;;;;;;;;;;;5067814;28;19928;-75
2024/04/05 06:08:29;;;;;;;;;;;;;;;;;;5069444;28;19928;-74
2024/04/05 06:10:55;;;;;;;;;;;;;;;;;;5073374;28;19940;-74
2024/04/05 06:13:22;;;;;;;;;;;;;;;;;;5073138;28;20404;-74
2024/04/05 06:15:50;;;;;;;;;;;;;;;;;;5066027;28;20176;-74
2024/04/05 06:18:17;;;;;;;;;;;;;;;;;;5064805;28;19934;-73
2024/04/05 06:20:43;;;;;;;;;;;;;;;;;;5068755;28;19932;-74
2024/04/05 06:23:10;;;;;;;;;;;;;;;;;;5065423;28;19929;-74
2024/04/05 06:25:36;;;;;;;;;;;;;;;;;;5072763;28;19975;-74
2024/04/05 06:28:03;;;;;;;;;;;;;;;;;;5072377;28;19985;-74
2024/04/05 06:30:30;;;;;;;;;;;;;;;;;;5071019;28;19967;-73
2024/04/05 06:32:56;;;;;;;;;;;;;;;;;;5068363;28;19928;-74
2024/04/05 06:35:23;;;;;;;;;;;;;;;;;;5077196;28;19935;-73
2024/04/05 06:37:49;;;;;;;;;;;;;;;;;;5064315;28;19928;-74
2024/04/05 06:40:16;;;;;;;;;;;;;;;;;;5068192;28;19928;-75
2024/04/05 06:42:42;;;;;;;;;;;;;;;;;;5067817;28;19940;-74
2024/04/05 06:45:09;;;;;;;;;;;;;;;;;;5063010;28;20399;-74
2024/04/05 06:47:35;;;;;;;;;;;;;;;;;;5071294;28;19960;-73
2024/04/05 06:50:04;;;;;;;;;;;;;;;;;;5067752;28;19936;-74
2024/04/05 06:52:30;;;;;;;;;;;;;;;;;;5068344;28;19928;-74
2024/04/05 06:54:57;;;;;;;;;;;;;;;;;;5067313;28;20015;-74
2024/04/05 06:57:23;;;;;;;;;;;;;;;;;;5070318;28;19933;-74
2024/04/05 06:59:50;;;;;;;;;;;;;;;;;;5060328;28;19936;-74
2024/04/05 07:02:20;;;;;;;;;;;;;;;;;;5065611;28;19938;-74
2024/04/05 07:04:47;;;;;;;;;;;;;;;;;;5073653;28;20366;-73
2024/04/05 07:07:13;;;;;;;;;;;;;;;;;;5067721;28;19968;-73
2024/04/05 07:09:40;;;;;;;;;;;;;;;;;;5069431;28;20340;-73
2024/04/05 07:12:07;;;;;;;;;;;;;;;;;;5073759;28;19978;-74
2024/04/05 07:14:34;;;;;;;;;;;;;;;;;;5079183;28;19939;-74
2024/04/05 07:17:01;;;;;;;;;;;;;;;;;;5073663;28;19928;-74
2024/04/05 07:19:28;;;;;;;;;;;;;;;;;;5063027;28;19978;-74
2024/04/05 07:21:54;;;;;;;;;;;;;;;;;;5070140;28;20351;-74
2024/04/05 07:24:22;;;;;;;;;;;;;;;;;;5078758;28;19934;-74
2024/04/05 07:26:48;;;;;;;;;;;;;;;;;;5076017;28;19928;-73
2024/04/05 07:29:15;;;;;;;;;;;;;;;;;;5067174;28;20259;-73
2024/04/05 07:31:41;;;;;;;;;;;;;;;;;;5070160;28;20007;-73
2024/04/05 07:34:08;;;;;;;;;;;;;;;;;;5064550;28;19932;-72
2024/04/05 07:36:34;;;;;;;;;;;;;;;;;;5074386;28;19934;-72
2024/04/05 07:39:03;;;;;;;;;;;;;;;;;;5072581;28;19928;-72
2024/04/05 07:41:29;;;;;;;;;;;;;;;;;;5069721;28;20403;-74
2024/04/05 07:43:56;;;;;;;;;;;;;;;;;;5072449;28;20046;-73
2024/04/05 07:46:22;;;;;;;;;;;;;;;;;;5068648;28;20749;-73
2024/04/05 07:48:49;;;;;;;;;;;;;;;;;;5069300;28;20001;-73
2024/04/05 07:51:16;;;;;;;;;;;;;;;;;;5073561;28;20007;-73
2024/04/05 07:53:43;;;;;;;;;;;;;;;;;;5068098;28;20435;-73
2024/04/05 07:56:09;;;;;;;;;;;;;;;;;;5068235;28;19979;-73
2024/04/05 07:58:38;;;;;;;;;;;;;;;;;;5067317;28;20295;-74
2024/04/05 08:01:05;;;;;;;;;;;;;;;;;;5078367;28;19978;-73
2024/04/05 08:03:32;;;;;;;;;;;;;;;;;;5064883;28;19928;-69
2024/04/05 08:05:59;;;;;;;;;;;;;;;;;;5066692;28;19928;-74
2024/04/05 08:08:26;;;;;;;;;;;;;;;;;;5065351;28;19943;-74
2024/04/05 08:10:52;;;;;;;;;;;;;;;;;;5067681;28;20407;-73
2024/04/05 08:13:19;;;;;;;;;;;;;;;;;;5067080;28;19951;-73
2024/04/05 08:15:45;;;;;;;;;;;;;;;;;;5062355;28;19989;-74
2024/04/05 08:18:12;;;;;;;;;;;;;;;;;;5065862;28;19932;-73
2024/04/05 08:20:38;;;;;;;;;;;;;;;;;;5064505;28;19931;-74
2024/04/05 08:23:06;;;;;;;;;;;;;;;;;;5076121;28;19932;-74
2024/04/05 08:25:32;;;;;;;;;;;;;;;;;;5076580;28;19958;-74
2024/04/05 08:27:59;;;;;;;;;;;;;;;;;;5066922;28;20377;-74
2024/04/05 08:30:25;;;;;;;;;;;;;;;;;;5067962;28;19964;-74
2024/04/05 08:32:53;;;;;;;;;;;;;;;;;;5069961;28;19928;-74
2024/04/05 08:35:19;;;;;;;;;;;;;;;;;;5072598;28;20035;-75
2024/04/05 08:37:46;;;;;;;;;;;;;;;;;;5066708;28;19997;-75
2024/04/05 08:40:12;;;;;;;;;;;;;;;;;;5058526;28;20023;-75
2024/04/05 08:42:39;;;;;;;;;;;;;;;;;;5067977;28;19935;-75
2024/04/05 08:45:06;;;;;;;;;;;;;;;;;;5069309;28;20474;-75
2024/04/05 08:47:33;;;;;;;;;;;;;;;;;;5066841;28;19975;-80
2024/04/05 08:50:00;;;;;;;;;;;;;;;;;;5064409;28;19928;-76
2024/04/05 08:52:27;;;;;;;;;;;;;;;;;;5072330;28;20307;-77
2024/04/05 08:54:54;;;;;;;;;;;;;;;;;;5071243;28;19928;-77
2024/04/05 08:57:21;;;;;;;;;;;;;;;;;;5066612;28;19935;-76
2024/04/05 08:59:49;;;;;;;;;;;;;;;;;;5067675;28;20044;-76
2024/04/05 09:02:16;;;;;;;;;;;;;;;;;;5068108;28;19928;-76
2024/04/05 09:04:42;;;;;;;;;;;;;;;;;;5060164;28;20430;-75
2024/04/05 09:07:09;;;;;;;;;;;;;;;;;;5065506;28;20327;-76
2024/04/05 09:09:35;;;;;;;;;;;;;;;;;;5063294;28;19951;-76
2024/04/05 09:12:02;;;;;;;;;;;;;;;;;;5078681;28;20110;-77
2024/04/05 09:14:29;;;;;;;;;;;;;;;;;;5073192;28;19986;-76
2024/04/05 09:16:56;;;;;;;;;;;;;;;;;;5071453;28;19928;-75
2024/04/05 09:19:23;;;;;;;;;;;;;;;;;;5074159;28;19941;-74
2024/04/05 09:21:50;;;;;;;;;;;;;;;;;;5063222;28;20019;-74
2024/04/05 09:24:16;;;;;;;;;;;;;;;;;;5064711;28;20002;-74
2024/04/05 09:26:43;;;;;;;;;;;;;;;;;;5076777;28;19935;-75
2024/04/05 09:29:13;;;;;;;;;;;;;;;;;;5070129;28;19928;-74
2024/04/05 09:31:40;;;;;;;;;;;;;;;;;;5068869;28;20058;-74
2024/04/05 09:34:06;;;;;;;;;;;;;;;;;;5073071;28;20017;-74
2024/04/05 09:36:33;;;;;;;;;;;;;;;;;;5071141;28;20459;-74
2024/04/05 09:39:00;;;;;;;;;;;;;;;;;;5065813;28;19971;-74
2024/04/05 09:41:27;;;;;;;;;;;;;;;;;;5071649;28;19933;-75
2024/04/05 09:43:53;;;;;;;;;;;;;;;;;;5079516;28;20010;-75
2024/04/05 09:46:20;;;;;;;;;;;;;;;;;;5076057;28;20041;-75
2024/04/05 09:48:46;;;;;;;;;;;;;;;;;;5076458;28;19973;-75
2024/04/05 09:51:13;;;;;;;;;;;;;;;;;;5067844;28;20132;-75
2024/04/05 09:53:40;;;;;;;;;;;;;;;;;;5070028;28;20364;-74
2024/04/05 09:56:06;;;;;;;;;;;;;;;;;;5074530;28;19979;-74
2024/04/05 09:58:34;;;;;;;;;;;;;;;;;;5070261;28;19928;-74
2024/04/05 10:01:06;;;;;;;;;;;;;;;;;;5074593;28;19935;-74
2024/04/05 10:03:33;;;;;;;;;;;;;;;;;;5068115;28;20475;-75
2024/04/05 10:05:59;;;;;;;;;;;;;;;;;;5069981;28;19928;-74
2024/04/05 10:08:26;;;;;;;;;;;;;;;;;;5071292;28;20014;-74
2024/04/05 10:10:52;;;;;;;;;;;;;;;;;;5078496;28;19968;-73
2024/04/05 10:13:19;;;;;;;;;;;;;;;;;;5079186;28;19982;-74
2024/04/05 10:15:46;;;;;;;;;;;;;;;;;;5068463;28;19928;-74
2024/04/05 10:18:13;;;;;;;;;;;;;;;;;;5070024;28;20039;-74
2024/04/05 10:20:39;;;;;;;;;;;;;;;;;;5065416;28;20019;-74
2024/04/05 10:23:06;;;;;;;;;;;;;;;;;;5066471;28;20029;-73
2024/04/05 10:25:32;;;;;;;;;;;;;;;;;;5071420;28;19967;-74
2024/04/05 10:28:00;;;;;;;;;;;;;;;;;;5070208;28;19997;-74
2024/04/05 10:30:26;;;;;;;;;;;;;;;;;;5071823;28;19928;-74
2024/04/05 10:32:53;;;;;;;;;;;;;;;;;;5076239;28;20485;-75
2024/04/05 10:35:19;;;;;;;;;;;;;;;;;;5072735;28;20387;-75
2024/04/05 10:37:46;;;;;;;;;;;;;;;;;;5065437;28;19928;-75
2024/04/05 10:40:13;;;;;;;;;;;;;;;;;;5062095;28;20379;-75
2024/04/05 10:42:40;;;;;;;;;;;;;;;;;;5072129;28;19932;-74
2024/04/05 10:45:07;;;;;;;;;;;;;;;;;;5073142;28;19983;-74
2024/04/05 10:47:35;;;;;;;;;;;;;;;;;;5070614;28;19940;-73
2024/04/05 10:50:01;;;;;;;;;;;;;;;;;;5066473;28;20353;-74
2024/04/05 10:52:28;;;;;;;;;;;;;;;;;;5066916;28;19928;-74
2024/04/05 10:54:54;;;;;;;;;;;;;;;;;;5067091;28;20225;-74
2024/04/05 10:57:21;;;;;;;;;;;;;;;;;;5071116;28;20393;-74
2024/04/05 10:59:47;;;;;;;;;;;;;;;;;;5072632;28;20433;-74
2024/04/05 11:02:14;;;;;;;;;;;;;;;;;;5072305;28;20375;-73
2024/04/05 11:04:40;;;;;;;;;;;;;;;;;;5067522;28;20023;-74
2024/04/05 11:07:08;;;;;;;;;;;;;;;;;;5067964;28;19975;-74
2024/04/05 11:09:35;;;;;;;;;;;;;;;;;;5073653;28;19928;-74
2024/04/05 11:12:03;;;;;;;;;;;;;;;;;;5070253;28;19933;-74
2024/04/05 11:14:29;;;;;;;;;;;;;;;;;;5067528;28;20386;-74
2024/04/05 11:16:56;;;;;;;;;;;;;;;;;;5065218;28;19928;-74
2024/04/05 11:19:22;;;;;;;;;;;;;;;;;;5066022;28;19975;-75
2024/04/05 11:21:49;;;;;;;;;;;;;;;;;;5074864;28;20384;-74
2024/04/05 11:24:15;;;;;;;;;;;;;;;;;;5072907;28;19983;-74
2024/04/05 11:26:42;;;;;;;;;;;;;;;;;;5070055;28;19928;-74
2024/04/05 11:29:08;;;;;;;;;;;;;;;;;;5075240;28;21550;-74
2024/04/05 11:31:35;;;;;;;;;;;;;;;;;;5066924;28;19928;-74
2024/04/05 11:34:01;;;;;;;;;;;;;;;;;;5067857;28;19936;-73
2024/04/05 11:36:28;;;;;;;;;;;;;;;;;;5066548;28;19929;-74
2024/04/05 11:38:54;;;;;;;;;;;;;;;;;;5062873;28;19929;-73
2024/04/05 11:41:24;;;;;;;;;;;;;;;;;;5067761;28;19959;-74
2024/04/05 11:43:50;;;;;;;;;;;;;;;;;;5067347;28;19935;-74
2024/04/05 11:46:18;;;;;;;;;;;;;;;;;;5066755;28;19928;-74
2024/04/05 11:48:44;;;;;;;;;;;;;;;;;;5065386;28;20135;-73
2024/04/05 11:51:11;;;;;;;;;;;;;;;;;;5060641;28;19935;-73
2024/04/05 11:53:37;;;;;;;;;;;;;;;;;;5061955;28;19928;-74
2024/04/05 11:56:05;;;;;;;;;;;;;;;;;;5065034;28;20011;-73
2024/04/05 11:58:31;;;;;;;;;;;;;;;;;;5075819;28;19928;-73
2024/04/05 12:00:58;;;;;;;;;;;;;;;;;;5073133;28;20053;-74
2024/04/05 12:03:24;;;;;;;;;;;;;;;;;;5064460;28;19928;-74
2024/04/05 12:05:51;;;;;;;;;;;;;;;;;;5069602;28;19928;-74
2024/04/05 12:08:17;;;;;;;;;;;;;;;;;;5072517;28;20452;-73
2024/04/05 12:10:44;;;;;;;;;;;;;;;;;;5072018;28;19928;-74
2024/04/05 12:13:11;;;;;;;;;;;;;;;;;;5063923;28;20414;-75
2024/04/05 12:15:38;;;;;;;;;;;;;;;;;;5073286;28;20428;-75
2024/04/05 12:18:04;;;;;;;;;;;;;;;;;;5062990;28;19983;-75
2024/04/05 12:20:31;;;;;;;;;;;;;;;;;;5067144;28;19928;-73
2024/04/05 12:22:57;;;;;;;;;;;;;;;;;;5063272;28;20230;-73
2024/04/05 12:25:24;;;;;;;;;;;;;;;;;;5076592;28;20632;-74
2024/04/05 12:27:52;;;;;;;;;;;;;;;;;;5060883;28;20579;-74
2024/04/05 12:30:19;;;;;;;;;;;;;;;;;;5063458;28;19936;-73
2024/04/05 12:32:46;;;;;;;;;;;;;;;;;;5066244;28;19933;-74
2024/04/05 12:35:13;;;;;;;;;;;;;;;;;;5072770;28;20022;-74
2024/04/05 12:37:39;;;;;;;;;;;;;;;;;;5075504;28;19932;-76
2024/04/05 12:40:15;;;;;;;;;;;;;;;;;;5072504;28;19935;-74
2024/04/05 12:42:41;;;;;;;;;;;;;;;;;;5063238;28;19951;-67
2024/04/05 12:45:08;;;;;;;;;;;;;;;;;;5068947;28;19935;-71
2024/04/05 12:47:35;;;;;;;;;;;;;;;;;;5067902;28;20007;-74
2024/04/05 12:50:02;;;;;;;;;;;;;;;;;;5065278;28;20460;-76
2024/04/05 12:52:28;;;;;;;;;;;;;;;;;;5063435;28;19933;-76
2024/04/05 12:54:55;;;;;;;;;;;;;;;;;;5066130;28;19968;-75
2024/04/05 12:57:23;;;;;;;;;;;;;;;;;;5071583;28;19932;-75
2024/04/05 12:59:50;;;;;;;;;;;;;;;;;;5066524;28;19932;-75
2024/04/05 13:02:16;;;;;;;;;;;;;;;;;;5073743;28;19936;-75
2024/04/05 13:04:43;;;;;;;;;;;;;;;;;;5073754;28;19978;-78
2024/04/05 13:07:10;;;;;;;;;;;;;;;;;;5072630;28;19968;-73
2024/04/05 13:09:37;;;;;;;;;;;;;;;;;;5067308;28;20450;-74
2024/04/05 13:12:03;;;;;;;;;;;;;;;;;;5068922;28;20449;-73
2024/04/05 13:14:30;;;;;;;;;;;;;;;;;;5072743;28;20372;-74
2024/04/05 13:16:57;;;;;;;;;;;;;;;;;;5073326;28;20013;-74
2024/04/05 13:19:24;;;;;;;;;;;;;;;;;;5065890;28;19973;-74
2024/04/05 13:21:50;;;;;;;;;;;;;;;;;;5063394;28;19991;-74
2024/04/05 13:24:17;;;;;;;;;;;;;;;;;;5071193;28;20273;-73
2024/04/05 13:26:43;;;;;;;;;;;;;;;;;;5067585;28;20015;-74
2024/04/05 13:29:10;;;;;;;;;;;;;;;;;;5066002;28;19936;-74
2024/04/05 13:31:36;;;;;;;;;;;;;;;;;;5066838;28;19964;-73
2024/04/05 13:34:06;;;;;;;;;;;;;;;;;;5075674;28;19928;-74
2024/04/05 13:36:32;;;;;;;;;;;;;;;;;;5068348;28;19948;-74
2024/04/05 13:38:59;;;;;;;;;;;;;;;;;;5066735;28;19928;-73
2024/04/05 13:41:25;;;;;;;;;;;;;;;;;;5069124;28;19940;-73
2024/04/05 13:43:52;;;;;;;;;;;;;;;;;;5060202;28;20001;-74
2024/04/05 13:46:19;;;;;;;;;;;;;;;;;;5063865;28;20350;-73
2024/04/05 13:48:46;;;;;;;;;;;;;;;;;;5064713;28;19955;-74
2024/04/05 13:51:12;;;;;;;;;;;;;;;;;;5065843;28;20400;-73
2024/04/05 13:53:39;;;;;;;;;;;;;;;;;;5059272;28;20410;-73
2024/04/05 13:56:05;;;;;;;;;;;;;;;;;;5066343;28;19935;-73
2024/04/05 13:58:32;;;;;;;;;;;;;;;;;;5072242;28;20269;-74
2024/04/05 14:00:58;;;;;;;;;;;;;;;;;;5062478;28;20749;-74
2024/04/05 14:03:25;;;;;;;;;;;;;;;;;;5060723;28;20338;-74
2024/04/05 14:05:51;;;;;;;;;;;;;;;;;;5063282;28;19963;-74
2024/04/05 14:08:18;;;;;;;;;;;;;;;;;;5073524;28;20279;-74
2024/04/05 14:10:46;;;;;;;;;;;;;;;;;;5082578;28;19932;-75
2024/04/05 14:13:13;;;;;;;;;;;;;;;;;;5061173;28;19928;-74
2024/04/05 14:15:39;;;;;;;;;;;;;;;;;;5074017;28;19932;-75
2024/04/05 14:18:06;;;;;;;;;;;;;;;;;;5069509;28;19924;-75
2024/04/05 14:20:32;;;;;;;;;;;;;;;;;;5086375;28;20542;-73
2024/04/05 14:22:59;;;;;;;;;;;;;;;;;;5067041;28;20768;-75
2024/04/05 14:25:25;;;;;;;;;;;;;;;;;;5076485;28;20065;-75
2024/04/05 14:27:55;;;;;;;;;;;;;;;;;;5070201;28;20322;-75
2024/04/05 14:30:21;;;;;;;;;;;;;;;;;;5072924;28;19932;-74
2024/04/05 14:32:48;;;;;;;;;;;;;;;;;;5072654;28;19929;-75
2024/04/05 14:35:14;;;;;;;;;;;;;;;;;;5083832;28;19928;-73
2024/04/05 14:37:41;;;;;;;;;;;;;;;;;;5070722;28;19928;-73
2024/04/05 14:40:08;;;;;;;;;;;;;;;;;;5081932;28;19932;-73
2024/04/05 14:42:35;;;;;;;;;;;;;;;;;;5076044;28;19963;-74
2024/04/05 14:45:01;;;;;;;;;;;;;;;;;;5089690;28;20360;-72
2024/04/05 14:47:28;;;;;;;;;;;;;;;;;;5077587;28;19927;-74
2024/04/05 14:49:54;;;;;;;;;;;;;;;;;;5079998;28;19981;-74
2024/04/05 14:52:21;;;;;;;;;;;;;;;;;;5074312;28;19940;-74
2024/04/05 14:54:47;;;;;;;;;;;;;;;;;;5072127;28;19980;-74
2024/04/05 14:57:14;;;;;;;;;;;;;;;;;;5075416;28;19928;-75
2024/04/05 14:59:40;;;;;;;;;;;;;;;;;;5081751;28;19932;-74
2024/04/05 15:02:07;;;;;;;;;;;;;;;;;;5079946;28;19940;-74
2024/04/05 15:04:33;;;;;;;;;;;;;;;;;;5075193;28;19962;-75
2024/04/05 15:07:00;;;;;;;;;;;;;;;;;;5064546;28;19929;-74
2024/04/05 15:09:26;;;;;;;;;;;;;;;;;;5075778;28;20033;-74
2024/04/05 15:11:53;;;;;;;;;;;;;;;;;;5070810;28;20481;-74
2024/04/05 15:14:19;;;;;;;;;;;;;;;;;;5074137;28;20406;-73
2024/04/05 15:16:49;;;;;;;;;;;;;;;;;;5069893;28;20314;-75
2024/04/05 15:19:15;;;;;;;;;;;;;;;;;;5077946;28;20025;-73
2024/04/05 15:21:43;;;;;;;;;;;;;;;;;;5076496;28;19932;-74
2024/04/05 15:24:09;;;;;;;;;;;;;;;;;;5080926;28;20026;-75
2024/04/05 15:26:36;;;;;;;;;;;;;;;;;;5065273;28;19936;-74
2024/04/05 15:29:02;;;;;;;;;;;;;;;;;;5069060;28;19928;-74
2024/04/05 15:31:31;;;;;;;;;;;;;;;;;;5073240;28;20328;-75
2024/04/05 15:33:57;;;;;;;;;;;;;;;;;;5076692;28;19928;-75
2024/04/05 15:36:24;;;;;;;;;;;;;;;;;;5069232;28;19928;-74
2024/04/05 15:38:50;;;;;;;;;;;;;;;;;;5067017;28;20419;-75
2024/04/05 15:41:17;;;;;;;;;;;;;;;;;;5068094;28;20271;-75
2024/04/05 15:43:43;;;;;;;;;;;;;;;;;;5079944;28;20432;-74
2024/04/05 15:46:10;;;;;;;;;;;;;;;;;;5087150;28;19928;-75
2024/04/05 15:48:36;;;;;;;;;;;;;;;;;;5066114;28;19928;-74
2024/04/05 15:51:04;;;;;;;;;;;;;;;;;;5074632;28;19928;-75
2024/04/05 15:53:30;;;;;;;;;;;;;;;;;;5066902;28;19963;-74
2024/04/05 15:56:00;;;;;;;;;;;;;;;;;;5068334;28;20023;-75
2024/04/05 15:58:26;;;;;;;;;;;;;;;;;;5068300;28;20398;-75
2024/04/05 16:00:53;;;;;;;;;;;;;;;;;;5081562;28;19990;-75
2024/04/05 16:03:19;;;;;;;;;;;;;;;;;;5072964;28;20512;-74
2024/04/05 16:05:46;;;;;;;;;;;;;;;;;;5078383;28;19928;-74
2024/04/05 16:08:13;;;;;;;;;;;;;;;;;;5075649;28;19932;-73
2024/04/05 16:10:40;;;;;;;;;;;;;;;;;;5085452;28;20485;-75
2024/04/05 16:13:07;;;;;;;;;;;;;;;;;;5067920;28;19932;-71
2024/04/05 16:15:34;;;;;;;;;;;;;;;;;;5066258;28;19986;-75
2024/04/05 16:18:00;;;;;;;;;;;;;;;;;;5066971;28;19936;-75
2024/04/05 16:20:27;;;;;;;;;;;;;;;;;;5071387;28;20346;-75
2024/04/05 16:22:53;;;;;;;;;;;;;;;;;;5068230;28;20279;-75
2024/04/05 16:25:20;;;;;;;;;;;;;;;;;;5072507;28;19932;-74
2024/04/05 16:27:47;;;;;;;;;;;;;;;;;;5065229;28;19929;-74
2024/04/05 16:30:14;;;;;;;;;;;;;;;;;;5067576;28;19928;-75
2024/04/05 16:32:40;;;;;;;;;;;;;;;;;;5084747;28;19932;-74
2024/04/05 16:35:08;;;;;;;;;;;;;;;;;;5071496;28;19935;-74
2024/04/05 16:37:34;;;;;;;;;;;;;;;;;;5079382;28;19928;-74
2024/04/05 16:40:03;;;;;;;;;;;;;;;;;;5075352;28;19939;-74
2024/04/05 16:42:29;;;;;;;;;;;;;;;;;;5083963;28;19971;-75